createdAt,value
2022-11-12T00:02:27.797Z,11.40
2022-11-12T00:06:16.484Z,10.70
2022-11-12T00:10:03.920Z,11.70
2022-11-12T00:13:50.729Z,12.40
2022-11-12T00:17:40.003Z,12.10
2022-11-12T00:21:25.729Z,12.40
2022-11-12T00:25:12.161Z,11.20
2022-11-12T00:28:58.549Z,10.80
2022-11-12T00:32:45.488Z,10.60
2022-11-12T00:36:30.904Z,10.30
2022-11-12T00:40:17.272Z,9.50
2022-11-12T00:44:04.050Z,9.20
2022-11-12T00:47:52.547Z,9.50
2022-11-12T00:51:38.760Z,9.90
2022-11-12T00:55:26.362Z,11.20
2022-11-12T00:59:14.840Z,14.30
2022-11-12T01:03:01.435Z,13.60
2022-11-12T01:06:50.865Z,15.00
2022-11-12T01:10:38.585Z,14.90
2022-11-12T01:14:27.856Z,16.00
2022-11-12T01:18:17.375Z,16.80
2022-11-12T01:22:06.273Z,16.70
2022-11-12T01:25:55.892Z,19.10
2022-11-12T01:29:44.365Z,16.30
2022-11-12T01:33:36.179Z,14.90
2022-11-12T01:37:24.443Z,14.70
2022-11-12T01:41:37.204Z,16.00
2022-11-12T01:45:23.316Z,15.60
2022-11-12T01:49:15.566Z,15.10
2022-11-12T01:53:06.486Z,14.10
2022-11-12T01:56:54.278Z,13.70
2022-11-12T02:00:41.911Z,15.10
2022-11-12T02:04:29.756Z,14.10
2022-11-12T02:08:17.450Z,14.40
2022-11-12T02:12:04.059Z,14.60
2022-11-12T02:15:49.901Z,14.20
2022-11-12T02:19:40.350Z,14.40
2022-11-12T02:23:26.348Z,14.80
2022-11-12T02:27:12.865Z,14.40
2022-11-12T02:30:58.399Z,13.50
2022-11-12T02:34:44.446Z,14.90
2022-11-12T02:38:29.832Z,14.40
2022-11-12T02:42:15.837Z,13.90
2022-11-12T02:46:01.837Z,13.20
2022-11-12T02:49:47.978Z,12.90
2022-11-12T02:53:37.121Z,11.60
2022-11-12T02:57:23.653Z,11.80
2022-11-12T03:01:09.639Z,12.60
2022-11-12T03:04:55.776Z,11.60
2022-11-12T03:08:41.565Z,12.50
2022-11-12T03:12:27.108Z,11.60
2022-11-12T03:16:13.303Z,11.40
2022-11-12T03:19:59.040Z,10.70
2022-11-12T03:23:45.665Z,10.80
2022-11-12T03:27:31.729Z,10.00
2022-11-12T03:31:29.747Z,8.90
2022-11-12T03:35:19.066Z,8.60
2022-11-12T03:39:05.374Z,9.00
2022-11-12T03:42:52.165Z,8.10
2022-11-12T03:46:43.040Z,9.70
2022-11-12T03:50:31.402Z,8.40
2022-11-12T03:54:17.966Z,8.60
2022-11-12T03:58:03.849Z,8.70
2022-11-12T04:01:49.897Z,9.70
2022-11-12T04:05:53.446Z,9.50
2022-11-12T04:09:38.864Z,9.70
2022-11-12T04:13:30.760Z,8.70
2022-11-12T04:17:34.033Z,9.40
2022-11-12T04:21:37.340Z,8.90
2022-11-12T04:25:49.085Z,9.20
2022-11-12T04:29:52.491Z,9.30
2022-11-12T04:33:38.310Z,7.90
2022-11-12T04:37:25.611Z,9.10
2022-11-12T04:41:29.822Z,8.60
2022-11-12T04:45:15.905Z,8.30
2022-11-12T04:49:01.865Z,9.20
2022-11-12T04:52:48.387Z,8.90
2022-11-12T04:56:34.077Z,9.10
2022-11-12T05:00:21.113Z,9.90
2022-11-12T05:04:07.635Z,9.00
2022-11-12T05:07:53.300Z,9.20
2022-11-12T05:11:39.380Z,9.00
2022-11-12T05:15:25.600Z,9.50
2022-11-12T05:19:11.313Z,10.30
2022-11-12T05:23:06.659Z,10.00
2022-11-12T05:26:54.294Z,9.80
2022-11-12T05:30:39.929Z,9.50
2022-11-12T05:34:26.906Z,8.90
2022-11-12T05:38:13.339Z,8.80
2022-11-12T05:42:12.464Z,9.00
2022-11-12T05:45:59.155Z,8.80
2022-11-12T05:49:44.864Z,8.80
2022-11-12T05:53:30.633Z,7.90
2022-11-12T05:57:18.924Z,7.90
2022-11-12T06:01:05.480Z,6.90
2022-11-12T06:04:51.596Z,7.50
2022-11-12T06:08:37.223Z,7.70
2022-11-12T06:12:22.527Z,6.80
2022-11-12T06:16:11.860Z,8.20
2022-11-12T06:19:57.610Z,11.50
2022-11-12T06:23:43.406Z,12.50
2022-11-12T06:27:29.311Z,11.80
2022-11-12T06:31:15.341Z,10.90
2022-11-12T06:35:01.302Z,9.40
2022-11-12T06:38:47.503Z,8.70
2022-11-12T06:42:33.504Z,7.60
2022-11-12T06:46:19.810Z,8.40
2022-11-12T06:50:05.740Z,8.80
2022-11-12T06:53:52.556Z,8.50
2022-11-12T06:57:38.584Z,8.30
2022-11-12T07:01:24.922Z,9.00
2022-11-12T07:05:11.166Z,10.30
2022-11-12T07:08:58.324Z,10.50
2022-11-12T07:12:44.724Z,10.10
2022-11-12T07:16:32.831Z,10.50
2022-11-12T07:20:19.358Z,11.20
2022-11-12T07:24:05.478Z,11.60
2022-11-12T07:27:51.356Z,11.30
2022-11-12T07:31:38.073Z,12.00
2022-11-12T07:35:23.507Z,10.90
2022-11-12T07:39:09.148Z,10.20
2022-11-12T07:42:54.849Z,10.00
2022-11-12T07:50:43.540Z,9.60
2022-11-12T07:54:32.264Z,10.10
2022-11-12T07:58:17.735Z,10.10
2022-11-12T08:02:06.084Z,10.50
2022-11-12T08:05:51.906Z,9.60
2022-11-12T08:09:37.849Z,10.10
2022-11-12T08:13:23.286Z,11.00
2022-11-12T08:17:08.953Z,12.60
2022-11-12T08:21:00.353Z,12.10
2022-11-12T08:24:46.227Z,13.90
2022-11-12T08:28:33.656Z,12.40
2022-11-12T08:32:19.758Z,13.80
2022-11-12T08:36:08.622Z,11.70
2022-11-12T08:39:54.583Z,13.70
2022-11-12T08:43:43.241Z,12.20
2022-11-12T08:47:28.836Z,13.20
2022-11-12T08:51:14.984Z,12.80
2022-11-12T08:55:00.759Z,12.60
2022-11-12T08:58:46.548Z,12.90
2022-11-12T09:02:32.151Z,12.80
2022-11-12T09:06:18.087Z,12.40
2022-11-12T09:10:03.886Z,14.10
2022-11-12T09:13:51.647Z,12.80
2022-11-12T09:17:37.682Z,13.40
2022-11-12T09:21:25.156Z,13.10
2022-11-12T09:25:12.025Z,13.60
2022-11-12T09:28:57.889Z,13.40
2022-11-12T09:32:43.683Z,13.40
2022-11-12T09:36:29.734Z,13.00
2022-11-12T09:40:21.358Z,11.90
2022-11-12T09:44:10.456Z,12.10
2022-11-12T09:48:01.700Z,11.60
2022-11-12T09:51:52.449Z,12.10
2022-11-12T09:55:41.738Z,11.10
2022-11-12T09:59:31.263Z,12.10
2022-11-12T10:03:32.023Z,12.50
2022-11-12T10:07:29.527Z,13.60
2022-11-12T10:11:52.663Z,11.80
2022-11-12T10:16:08.799Z,13.90
2022-11-12T10:20:15.750Z,13.30
2022-11-12T10:24:03.278Z,12.10
2022-11-12T10:27:49.962Z,12.60
2022-11-12T10:31:36.559Z,12.80
2022-11-12T10:35:24.649Z,11.90
2022-11-12T10:39:11.659Z,11.70
2022-11-12T10:43:03.017Z,11.70
2022-11-12T10:46:51.454Z,10.80
2022-11-12T10:50:43.665Z,12.20
2022-11-12T10:54:42.869Z,10.70
2022-11-12T10:58:32.376Z,12.30
2022-11-12T11:02:21.771Z,11.90
2022-11-12T11:06:21.196Z,14.40
2022-11-12T11:10:23.643Z,11.40
2022-11-12T11:14:28.828Z,11.90
2022-11-12T11:18:15.951Z,11.30
2022-11-12T11:22:17.371Z,12.30
2022-11-12T11:26:18.168Z,12.70
2022-11-12T11:30:20.749Z,12.70
2022-11-12T11:34:22.409Z,10.70
2022-11-12T11:38:23.692Z,10.70
2022-11-12T11:42:27.239Z,9.50
2022-11-12T11:46:33.711Z,9.70
2022-11-12T11:50:29.588Z,9.00
2022-11-12T11:54:41.446Z,9.20
2022-11-12T11:58:52.982Z,9.00
2022-11-12T12:03:14.679Z,8.80
2022-11-12T12:07:17.139Z,8.90
2022-11-12T12:11:09.533Z,9.30
2022-11-12T12:15:20.726Z,8.50
2022-11-12T12:19:16.435Z,9.30
2022-11-12T12:23:05.037Z,9.50
2022-11-12T12:26:55.506Z,10.60
2022-11-12T12:30:47.134Z,9.80
2022-11-12T12:34:39.164Z,9.00
2022-11-12T12:38:32.172Z,14.80
2022-11-12T12:42:22.305Z,23.10
2022-11-12T12:46:12.981Z,16.00
2022-11-12T12:50:02.289Z,17.10
2022-11-12T12:53:48.080Z,10.10
2022-11-12T12:57:37.968Z,16.40
2022-11-12T13:01:35.645Z,20.30
2022-11-12T13:05:34.337Z,17.00
2022-11-12T13:09:28.734Z,14.30
2022-11-12T13:13:46.139Z,12.10
2022-11-12T13:17:48.879Z,13.50
2022-11-12T13:21:38.958Z,12.60
2022-11-12T13:25:31.960Z,17.90
2022-11-12T13:29:41.216Z,13.50
2022-11-12T13:33:35.593Z,13.50
2022-11-12T13:37:25.967Z,14.50
2022-11-12T13:41:19.765Z,10.80
2022-11-12T13:45:11.399Z,13.10
2022-11-12T13:49:02.028Z,13.30
2022-11-12T13:52:49.112Z,13.80
2022-11-12T13:56:38.011Z,14.90
2022-11-12T14:00:27.440Z,17.40
2022-11-12T14:04:18.584Z,12.40
2022-11-12T14:08:21.087Z,14.00
2022-11-12T14:12:22.944Z,13.40
2022-11-12T14:16:24.585Z,15.20
2022-11-12T14:20:31.509Z,14.90
2022-11-12T14:24:20.855Z,14.50
2022-11-12T14:28:07.402Z,10.70
2022-11-12T14:32:04.428Z,9.90
2022-11-12T14:35:51.777Z,11.20
2022-11-12T14:39:44.444Z,11.10
2022-11-12T14:43:38.424Z,10.40
2022-11-12T14:47:25.406Z,11.80
2022-11-12T14:51:15.513Z,12.10
2022-11-12T14:55:07.937Z,14.20
2022-11-12T14:58:55.633Z,14.20
2022-11-12T15:02:55.709Z,13.90
2022-11-12T15:10:36.948Z,12.30
2022-11-12T15:14:26.959Z,14.10
2022-11-12T15:18:19.699Z,14.70
2022-11-12T15:22:07.055Z,14.00
2022-11-12T15:26:02.948Z,13.20
2022-11-12T15:29:48.952Z,12.80
2022-11-12T15:33:34.978Z,13.80
2022-11-12T15:37:29.331Z,13.30
2022-11-12T15:41:26.374Z,14.70
2022-11-12T15:45:19.856Z,13.40
2022-11-12T15:49:13.123Z,13.30
2022-11-12T15:52:59.328Z,14.30
2022-11-12T15:56:45.383Z,14.70
2022-11-12T16:00:36.518Z,14.90
2022-11-12T16:05:03.257Z,16.40
2022-11-12T16:08:49.031Z,16.40
2022-11-12T16:12:34.865Z,19.00
2022-11-12T16:16:21.120Z,22.70
2022-11-12T16:20:13.691Z,23.70
2022-11-12T16:23:59.374Z,23.90
2022-11-12T16:27:50.145Z,21.40
2022-11-12T16:31:38.682Z,19.20
2022-11-12T16:35:25.211Z,18.30
2022-11-12T16:39:13.850Z,16.90
2022-11-12T16:43:00.049Z,17.70
2022-11-12T16:46:47.964Z,15.60
2022-11-12T16:50:33.746Z,16.10
2022-11-12T16:54:19.480Z,18.40
2022-11-12T16:58:05.589Z,18.70
2022-11-12T17:01:52.133Z,18.20
2022-11-12T17:05:40.817Z,17.90
2022-11-12T17:09:26.556Z,17.40
2022-11-12T17:13:16.205Z,25.50
2022-11-12T17:17:02.251Z,22.90
2022-11-12T17:20:51.220Z,29.60
2022-11-12T17:24:37.600Z,26.80
2022-11-12T17:28:24.600Z,22.10
2022-11-12T17:32:10.669Z,20.50
2022-11-12T17:36:01.982Z,19.90
2022-11-12T17:39:49.033Z,17.70
2022-11-12T17:43:37.957Z,19.80
2022-11-12T17:47:24.776Z,20.00
2022-11-12T17:51:13.688Z,19.40
2022-11-12T17:54:59.785Z,20.10
2022-11-12T17:58:47.557Z,21.30
2022-11-12T18:02:34.620Z,20.30
2022-11-12T18:06:22.805Z,19.70
2022-11-12T18:10:09.271Z,20.50
2022-11-12T18:13:55.230Z,20.20
2022-11-12T18:17:41.127Z,21.30
2022-11-12T18:21:28.557Z,23.20
2022-11-12T18:25:15.194Z,20.90
2022-11-12T18:29:03.408Z,21.20
2022-11-12T18:32:50.963Z,23.20
2022-11-12T18:36:37.585Z,27.10
2022-11-12T18:40:25.321Z,26.10
2022-11-12T18:44:12.039Z,30.80
2022-11-12T18:47:58.033Z,25.40
2022-11-12T18:51:44.643Z,28.40
2022-11-12T18:55:32.479Z,28.00
2022-11-12T18:59:20.032Z,29.40
2022-11-12T19:03:05.703Z,27.20
2022-11-12T19:06:51.890Z,25.60
2022-11-12T19:10:42.214Z,23.20
2022-11-12T19:14:31.620Z,23.30
2022-11-12T19:18:17.915Z,22.80
2022-11-12T19:22:04.122Z,21.70
2022-11-12T19:25:53.917Z,26.10
2022-11-12T19:29:46.165Z,24.20
2022-11-12T19:33:32.118Z,26.10
2022-11-12T19:37:33.027Z,24.20
2022-11-12T19:41:20.393Z,25.40
2022-11-12T19:45:07.697Z,23.90
2022-11-12T19:48:53.492Z,24.40
2022-11-12T19:52:41.433Z,25.90
2022-11-12T19:56:29.649Z,26.70
2022-11-12T20:00:19.526Z,26.50
2022-11-12T20:04:06.020Z,27.50
2022-11-12T20:07:53.585Z,32.20
2022-11-12T20:11:39.357Z,28.40
2022-11-12T20:15:26.080Z,25.50
2022-11-12T20:19:12.474Z,21.70
2022-11-12T20:23:02.264Z,22.70
2022-11-12T20:26:48.879Z,22.50
2022-11-12T20:30:35.308Z,23.00
2022-11-12T20:34:23.901Z,24.50
2022-11-12T20:38:09.619Z,25.90
2022-11-12T20:41:56.540Z,21.80
2022-11-12T20:45:42.124Z,23.10
2022-11-12T20:49:31.476Z,21.80
2022-11-12T20:53:18.866Z,23.50
2022-11-12T20:57:05.032Z,23.20
2022-11-12T21:00:52.741Z,24.20
2022-11-12T21:04:38.888Z,21.60
2022-11-12T21:08:26.436Z,23.20
2022-11-12T21:12:12.875Z,25.00
2022-11-12T21:16:00.461Z,24.00
2022-11-12T21:19:46.249Z,23.90
2022-11-12T21:23:34.407Z,24.80
2022-11-12T21:27:22.032Z,26.90
2022-11-12T21:31:11.993Z,27.40
2022-11-12T21:34:57.660Z,26.60
2022-11-12T21:38:44.170Z,26.60
2022-11-12T21:42:30.260Z,26.60
2022-11-12T21:46:21.328Z,25.20
2022-11-12T21:50:10.174Z,23.10
2022-11-12T21:54:00.049Z,25.00
2022-11-12T21:57:55.383Z,23.50
2022-11-12T22:01:44.171Z,23.00
2022-11-12T22:05:32.343Z,21.70
2022-11-12T22:09:20.164Z,24.40
2022-11-12T22:13:26.503Z,24.60
2022-11-12T22:17:16.551Z,26.30
2022-11-12T22:21:08.678Z,25.50
2022-11-12T22:24:55.073Z,25.20
2022-11-12T22:28:41.244Z,29.10
2022-11-12T22:32:28.513Z,31.10
2022-11-12T22:36:18.266Z,30.10
2022-11-12T22:40:09.131Z,28.30
2022-11-12T22:44:02.618Z,26.70
2022-11-12T22:47:49.882Z,26.10
2022-11-12T22:51:41.943Z,26.70
2022-11-12T22:55:33.072Z,28.20
2022-11-12T22:59:19.117Z,29.80
2022-11-12T23:03:09.764Z,27.40
2022-11-12T23:06:56.932Z,28.80
2022-11-12T23:10:45.801Z,27.20
2022-11-12T23:14:32.328Z,31.70
2022-11-12T23:18:18.425Z,30.70
2022-11-12T23:22:07.811Z,29.00
2022-11-12T23:25:53.649Z,25.30
2022-11-12T23:29:41.749Z,24.00
2022-11-12T23:33:28.300Z,24.10
2022-11-12T23:37:14.602Z,24.10
2022-11-12T23:41:03.682Z,24.40
2022-11-12T23:44:49.941Z,22.80
2022-11-12T23:48:36.080Z,24.90
2022-11-12T23:52:24.195Z,22.90
2022-11-12T23:56:11.892Z,21.50
